LCLK/LCA METAR and TAF weather

Enter ICAO airport designator
Station Type Date Time Source
LCLK METAR 2019/12/08 01:00 UTC NOAA

LCLK 080100Z 27002KT CAVOK 10/06 Q1015 NOSIG


Station Type Date Time Source
LCLK Decoded METAR 2019/12/08 01:00 UTC NOAA

Larnaca Airport, Cyprus (LCLK) 34-53N 033-38E 2M
Dec 07, 2019 - 08:00 PM EST / 2019.12.08 0100 UTC
Wind: from the W (270 degrees) at 2 MPH (2 KT):0
Visibility: greater than 7 mile(s):0
Temperature: 50 F (10 C)
Dew Point: 42 F (6 C)
Relative Humidity: 76%
Pressure (altimeter): 29.97 in. Hg (1015 hPa)
ob: LCLK 080100Z 27002KT CAVOK 10/06 Q1015 NOSIG
cycle: 1

Station Type Date Time Source
LCLK TAF 2019/12/07 18:30 UTC NOAA

TAF LCLK 071730Z 0718/0818 31006KT 9999 FEW030
BECMG 0811/0813 21010KT
BECMG 0815/0818 31007KT

Example: see airport list